Cheyenne County Municipal Airport


Codes: KSYF/
Name: Cheyenne County Municipal Airport
City: St Francis
Country: United States
Elevation: 3413 ft.
Wikipedia:

Photos at Cheyenne County Municipal Airport


   Photos courtesy of SpottingLog. You can add your own sightings and photos by signing up for a free trial today.



No photos found.

Weather at Cheyenne County Municipal Airport


Time (UTC)DescriptionTempratureWindCloud coverageVisibilityPressureHumidity
18-Apr-2024 00:00Few Clouds26°C9 mph, SW24%10000m1005hPa15%
18-Apr-2024 03:00Broken Clouds17°C22 mph, N61%10000m1009hPa48%
18-Apr-2024 06:00Broken Clouds9°C25 mph, N82%10000m1015hPa79%
18-Apr-2024 09:00Overcast Clouds6°C22 mph, N100%10000m1018hPa76%
18-Apr-2024 12:00Overcast Clouds5°C16 mph, N91%10000m1022hPa66%
18-Apr-2024 15:00Scattered Clouds7°C18 mph, N38%10000m1024hPa39%
18-Apr-2024 18:00Scattered Clouds11°C13 mph, N46%10000m1023hPa35%
18-Apr-2024 21:00Overcast Clouds12°C9 mph, N98%10000m1021hPa28%
19-Apr-2024 00:00Overcast Clouds12°C9 mph, N94%10000m1021hPa30%
19-Apr-2024 03:00Overcast Clouds9°C7 mph, E99%10000m1023hPa35%
19-Apr-2024 06:00Overcast Clouds8°C4 mph, SE97%10000m1023hPa34%
19-Apr-2024 09:00Overcast Clouds7°C9 mph, SE98%10000m1024hPa33%
19-Apr-2024 12:00Overcast Clouds6°C11 mph, S99%10000m1024hPa45%
19-Apr-2024 15:00Overcast Clouds7°C11 mph, SE100%10000m1024hPa45%
19-Apr-2024 18:00Overcast Clouds8°C11 mph, SE100%10000m1023hPa44%
19-Apr-2024 21:00Overcast Clouds10°C9 mph, SE100%10000m1021hPa42%
20-Apr-2024 00:00Overcast Clouds9°C13 mph, NE100%10000m1022hPa49%
20-Apr-2024 03:00Light Rain4°C7 mph, E100%10000m1027hPa88%
20-Apr-2024 06:00Moderate Rain4°C7 mph, S100%10000m1028hPa87%
20-Apr-2024 09:00Light Rain3°C4 mph, SW100%6720m1029hPa91%
20-Apr-2024 12:00Light Rain3°C2 mph, SE100%68m1030hPa97%
20-Apr-2024 15:00Light Snow1°C9 mph, E100%564m1031hPa96%
20-Apr-2024 18:00Light Snow2°C9 mph, E100%329m1030hPa96%
20-Apr-2024 21:00Light Rain4°C9 mph, SE100%84m1027hPa96%
21-Apr-2024 00:00Overcast Clouds4°C7 mph, SE100%10000m1026hPa95%
21-Apr-2024 03:00Overcast Clouds4°C7 mph, SE100%10000m1027hPa94%
21-Apr-2024 06:00Overcast Clouds5°C4 mph, SE100%10000m1026hPa94%
21-Apr-2024 09:00Overcast Clouds5°C7 mph, S100%10000m1025hPa93%
21-Apr-2024 12:00Overcast Clouds4°C7 mph, S98%10000m1025hPa96%
21-Apr-2024 15:00Overcast Clouds7°C9 mph, SW96%10000m1024hPa82%
21-Apr-2024 18:00Overcast Clouds11°C11 mph, SW98%10000m1020hPa64%
21-Apr-2024 21:00Overcast Clouds14°C9 mph, SW100%10000m1017hPa54%
22-Apr-2024 00:00Overcast Clouds16°C16 mph, SE86%10000m1014hPa51%
22-Apr-2024 03:00Scattered Clouds10°C18 mph, S48%10000m1015hPa71%
22-Apr-2024 06:00Broken Clouds9°C20 mph, S67%10000m1013hPa79%
22-Apr-2024 09:00Overcast Clouds8°C16 mph, S100%10000m1011hPa85%
22-Apr-2024 12:00Overcast Clouds8°C11 mph, SW94%10000m1009hPa84%
22-Apr-2024 15:00Broken Clouds18°C9 mph, W82%10000m1007hPa41%
22-Apr-2024 18:00Overcast Clouds22°C11 mph, N91%10000m1007hPa30%
22-Apr-2024 21:00Overcast Clouds23°C13 mph, NE100%10000m1006hPa32%